Terminal Aerodrome Forecast
Issued by NWS Denver/Boulder, CO

Home | Current Version | Previous Version | Text Only | Print | Product List | Glossary On
Versions: 1 2 3 4 5 6 7 8 9 10 11 12 13 14 15 16 17 18 19 20 21 22 23 24 25 26 27 28 29 30 31 32 33 34 35 36 37 38 39 40 41 42 43 44 45 46 47 48 49 50
000
FTUS45 KBOU 260541
TAFDEN
TAF
KDEN 260541Z 2606/2712 04016G24KT 2SM -SN BR SCT010 OVC016
      TEMPO 2606/2607 5SM -SN BR SCT012 OVC020
     FM260700 03015KT 5SM -SN BR SCT018 OVC030
      TEMPO 2607/2608 2SM -SN BR BKN012 OVC020
     FM261300 05008KT P6SM -SN SCT020 BKN028 OVC035
     FM262000 08010G18KT 3SM -SN BR SCT006 BKN014 OVC020
     FM270100 12008KT 5SM -SN SCT018 BKN030
     FM270600 16012G22KT P6SM VCSH SCT030 BKN050=

USA.gov is the U.S. government's official web portal to all federal, state and local government web resources and services.